This is the latest recevied weather packets stored in our database for station/object JA3YAI-13. If no packets are shown the sender has not sent any weather packets the latest 10 day(s).
| Time | Temp. | Humidity | Pressure | Rain* | Wind** | Luminosity | Snow |
|---|---|---|---|---|---|---|---|
| 1777181785 | 17.78° C | 83% | 1005.6 hPa | 0.25 mm | - | - | - |
| 1777181185 | 17.78° C | 83% | 1005.6 hPa | 0.25 mm | - | - | - |
| 1777180584 | 18.89° C | 82% | 1006 hPa | 0.25 mm | - | - | - |
| 1777179984 | 20° C | 71% | 1006.3 hPa | 0.25 mm | - | - | - |
| 1777179385 | 21.11° C | 60% | 1006.4 hPa | 0 mm | - | - | - |
| 1777178785 | 21.11° C | 59% | 1006.3 hPa | 0 mm | - | - | - |
| 1777178184 | 21.67° C | 58% | 1006.7 hPa | 0 mm | - | - | - |
| 1777177584 | 22.78° C | 56% | 1006.4 hPa | 0 mm | - | - | - |
| 1777176986 | 21.67° C | 57% | 1006.6 hPa | 0 mm | - | - | - |
| 1777176385 | 22.22° C | 58% | 1006.9 hPa | 0 mm | - | - | - |
| 1777175785 | 22.78° C | 55% | 1006.8 hPa | 0 mm | - | - | - |
| 1777175185 | 22.22° C | 59% | 1006.9 hPa | 0 mm | - | - | - |
| 1777174584 | 22.22° C | 59% | 1007.1 hPa | 0 mm | - | - | - |
| 1777173986 | 22.78° C | 57% | 1007.3 hPa | 0 mm | - | - | - |
| 1777173385 | 22.78° C | 57% | 1007.7 hPa | 0 mm | - | - | - |
| 1777172785 | 22.22° C | 58% | 1007.7 hPa | 0 mm | - | - | - |
| 1777172184 | 21.67° C | 60% | 1007.8 hPa | 0 mm | - | - | - |
| 1777171584 | 21.11° C | 61% | 1008 hPa | 0 mm | - | - | - |
| 1777170986 | 21.11° C | 62% | 1008.2 hPa | 0 mm | - | - | - |
| 1777170385 | 21.11° C | 62% | 1008.3 hPa | 0 mm | - | - | - |
| 1777169785 | 20.56° C | 64% | 1008.5 hPa | 0 mm | - | - | - |
| 1777169185 | 21.67° C | 63% | 1008.8 hPa | 0 mm | - | - | - |
| 1777168584 | 21.11° C | 64% | 1008.8 hPa | 0 mm | - | - | - |
| 1777167984 | 20.56° C | 66% | 1008.7 hPa | 0 mm | - | - | - |
| 1777167386 | 20.56° C | 67% | 1009 hPa | 0 mm | - | - | - |
* Rain latest hour (hover to see other rain measurements)
** Current wind speed in m/s (hover to see current wind gust speed)